Portada
METAR-TAF:

METAR-TAF

Aeroports :

Skaka, Aràbia Saudita

latitud: 29-47N, longitud: 040-06E, altitud: 689 m

Observació

L'informe es va fer fa 22 minuts, a les 06:00 UTC
Vent 4 kt del Sud/Sud-Est
Temperatura 23°C
Humitat 13%
Pressió 1023 hPa
Visibilitat 10 km o més
sense núvols per sota de 1500 mi sense presència de cumulonimbus.

METAR: OESK 200600Z 15004KT CAVOK 23/M07 Q1023

Hora: 09:22 (06:22 UTC)

Pronòstic

L'informe es va fer fa 7 hores i 22 minuts, a les 23:00 UTC
Pronòstic vàlid del 20 a les 00 UTC al 21 a les 06 UTC
Vent 3 kt amb direcció variable
Visibilitat 10 km o més
sense núvols per sota de 1500 mi sense presència de cumulonimbus.
Evolucionant progressivament
l' 20 a les 06 UTC al 20 a les 08 UTC
Vent 12 kt del Sud/Sud-Oest

TAF: OESK 192300Z 2000/2106 VRB03KT CAVOK BECMG 2006/2008 20012KT

Observacions i pronòstics meteorològics de més de 4000 aeroports (METAR i TAF).

Les estacions disponibles són els punts grocs i vermells al mapa.

Posi el ratolí al punt desitjat per veure el nom de l'estació.

Feu clic per veure les observacions i els pronòstics meteorològics.

Per canviar el mapa: feu clic els botons verds amb una creu de color negre per apropar; al botó verd amb un guió per allunyar la imatge; o en les fletxes verdes per a mapes adjacents.


METAR-TAF: